sensor_id;sensor_type;location;lat;lon;timestamp;P1;durP1;ratioP1;P2;durP2;ratioP2
6306;SDS011;3186;54.062;9.962;2022-07-22T00:01:31;9.43;;;3.07;;
6306;SDS011;3186;54.062;9.962;2022-07-22T00:03:57;6.30;;;3.30;;
6306;SDS011;3186;54.062;9.962;2022-07-22T00:06:23;8.43;;;3.77;;
6306;SDS011;3186;54.062;9.962;2022-07-22T00:08:49;6.43;;;3.23;;
6306;SDS011;3186;54.062;9.962;2022-07-22T00:11:15;7.97;;;3.30;;
6306;SDS011;3186;54.062;9.962;2022-07-22T00:13:41;7.83;;;3.10;;
6306;SDS011;3186;54.062;9.962;2022-07-22T00:16:06;8.53;;;3.27;;
6306;SDS011;3186;54.062;9.962;2022-07-22T00:18:32;6.63;;;3.07;;
6306;SDS011;3186;54.062;9.962;2022-07-22T00:20:58;6.37;;;2.93;;
6306;SDS011;3186;54.062;9.962;2022-07-22T00:23:24;8.37;;;3.33;;
6306;SDS011;3186;54.062;9.962;2022-07-22T00:25:50;6.37;;;2.60;;
6306;SDS011;3186;54.062;9.962;2022-07-22T00:28:16;7.10;;;2.97;;
6306;SDS011;3186;54.062;9.962;2022-07-22T00:30:42;6.53;;;2.70;;
6306;SDS011;3186;54.062;9.962;2022-07-22T00:33:08;5.67;;;2.83;;
6306;SDS011;3186;54.062;9.962;2022-07-22T00:35:34;5.10;;;2.57;;
6306;SDS011;3186;54.062;9.962;2022-07-22T00:37:59;4.97;;;2.40;;
6306;SDS011;3186;54.062;9.962;2022-07-22T00:40:25;5.27;;;2.57;;
6306;SDS011;3186;54.062;9.962;2022-07-22T00:42:52;5.03;;;2.30;;
6306;SDS011;3186;54.062;9.962;2022-07-22T00:45:18;6.03;;;2.40;;
6306;SDS011;3186;54.062;9.962;2022-07-22T00:47:44;5.50;;;2.70;;
6306;SDS011;3186;54.062;9.962;2022-07-22T00:50:10;4.40;;;2.20;;
6306;SDS011;3186;54.062;9.962;2022-07-22T00:52:36;4.53;;;2.10;;
6306;SDS011;3186;54.062;9.962;2022-07-22T00:55:03;4.47;;;1.90;;
6306;SDS011;3186;54.062;9.962;2022-07-22T00:57:30;4.30;;;1.87;;
6306;SDS011;3186;54.062;9.962;2022-07-22T00:59:56;6.13;;;2.40;;
6306;SDS011;3186;54.062;9.962;2022-07-22T01:02:22;3.50;;;2.07;;
6306;SDS011;3186;54.062;9.962;2022-07-22T01:04:48;3.57;;;2.10;;
6306;SDS011;3186;54.062;9.962;2022-07-22T01:07:14;7.77;;;2.23;;
6306;SDS011;3186;54.062;9.962;2022-07-22T01:09:43;5.50;;;2.00;;
6306;SDS011;3186;54.062;9.962;2022-07-22T01:12:10;3.40;;;1.80;;
6306;SDS011;3186;54.062;9.962;2022-07-22T01:14:37;5.63;;;1.87;;
6306;SDS011;3186;54.062;9.962;2022-07-22T01:17:03;3.60;;;1.83;;
6306;SDS011;3186;54.062;9.962;2022-07-22T01:19:29;2.23;;;1.37;;
6306;SDS011;3186;54.062;9.962;2022-07-22T01:21:55;3.00;;;1.63;;
6306;SDS011;3186;54.062;9.962;2022-07-22T01:24:21;4.70;;;1.90;;
6306;SDS011;3186;54.062;9.962;2022-07-22T01:26:48;4.83;;;2.03;;
6306;SDS011;3186;54.062;9.962;2022-07-22T01:29:14;6.00;;;1.77;;
6306;SDS011;3186;54.062;9.962;2022-07-22T01:31:40;2.73;;;1.43;;
6306;SDS011;3186;54.062;9.962;2022-07-22T01:34:06;4.17;;;1.67;;
6306;SDS011;3186;54.062;9.962;2022-07-22T01:36:35;3.67;;;1.70;;
6306;SDS011;3186;54.062;9.962;2022-07-22T01:39:02;3.27;;;1.27;;
6306;SDS011;3186;54.062;9.962;2022-07-22T01:41:29;4.83;;;1.90;;
6306;SDS011;3186;54.062;9.962;2022-07-22T01:43:55;4.00;;;1.63;;
6306;SDS011;3186;54.062;9.962;2022-07-22T01:46:21;3.20;;;1.67;;
6306;SDS011;3186;54.062;9.962;2022-07-22T01:48:49;3.17;;;1.47;;
6306;SDS011;3186;54.062;9.962;2022-07-22T01:51:16;4.43;;;1.60;;
6306;SDS011;3186;54.062;9.962;2022-07-22T01:53:42;3.63;;;1.50;;
6306;SDS011;3186;54.062;9.962;2022-07-22T01:56:08;4.67;;;1.50;;
6306;SDS011;3186;54.062;9.962;2022-07-22T01:58:41;1.97;;;1.23;;
6306;SDS011;3186;54.062;9.962;2022-07-22T02:01:08;4.87;;;1.87;;
6306;SDS011;3186;54.062;9.962;2022-07-22T02:03:34;3.40;;;1.30;;
6306;SDS011;3186;54.062;9.962;2022-07-22T02:06:00;3.60;;;1.43;;
6306;SDS011;3186;54.062;9.962;2022-07-22T02:08:27;3.50;;;1.50;;
6306;SDS011;3186;54.062;9.962;2022-07-22T02:11:11;2.63;;;1.20;;
6306;SDS011;3186;54.062;9.962;2022-07-22T02:13:47;3.37;;;1.60;;
6306;SDS011;3186;54.062;9.962;2022-07-22T02:16:13;3.90;;;1.50;;
6306;SDS011;3186;54.062;9.962;2022-07-22T02:18:39;3.27;;;1.50;;
6306;SDS011;3186;54.062;9.962;2022-07-22T02:21:07;4.53;;;2.10;;
6306;SDS011;3186;54.062;9.962;2022-07-22T02:23:33;5.73;;;1.40;;
6306;SDS011;3186;54.062;9.962;2022-07-22T02:25:59;4.33;;;1.50;;
6306;SDS011;3186;54.062;9.962;2022-07-22T02:28:25;3.53;;;1.77;;
6306;SDS011;3186;54.062;9.962;2022-07-22T02:30:50;2.67;;;1.60;;
6306;SDS011;3186;54.062;9.962;2022-07-22T02:33:16;2.10;;;1.50;;
6306;SDS011;3186;54.062;9.962;2022-07-22T02:35:42;2.33;;;1.40;;
6306;SDS011;3186;54.062;9.962;2022-07-22T02:38:09;2.63;;;1.37;;
6306;SDS011;3186;54.062;9.962;2022-07-22T02:40:36;2.73;;;1.63;;
6306;SDS011;3186;54.062;9.962;2022-07-22T02:43:02;6.47;;;1.70;;
6306;SDS011;3186;54.062;9.962;2022-07-22T02:45:32;4.00;;;1.33;;
6306;SDS011;3186;54.062;9.962;2022-07-22T02:47:58;1.73;;;1.43;;
6306;SDS011;3186;54.062;9.962;2022-07-22T02:50:25;3.60;;;1.37;;
6306;SDS011;3186;54.062;9.962;2022-07-22T02:52:52;3.20;;;1.43;;
6306;SDS011;3186;54.062;9.962;2022-07-22T02:55:21;2.40;;;1.60;;
6306;SDS011;3186;54.062;9.962;2022-07-22T02:57:49;3.37;;;1.60;;
6306;SDS011;3186;54.062;9.962;2022-07-22T03:00:15;5.07;;;1.50;;
6306;SDS011;3186;54.062;9.962;2022-07-22T03:02:44;2.37;;;1.37;;
6306;SDS011;3186;54.062;9.962;2022-07-22T03:05:10;2.70;;;1.30;;
6306;SDS011;3186;54.062;9.962;2022-07-22T03:07:43;2.27;;;1.30;;
6306;SDS011;3186;54.062;9.962;2022-07-22T03:10:11;3.33;;;1.60;;
6306;SDS011;3186;54.062;9.962;2022-07-22T03:12:37;3.83;;;1.60;;
6306;SDS011;3186;54.062;9.962;2022-07-22T03:15:03;3.57;;;1.60;;
6306;SDS011;3186;54.062;9.962;2022-07-22T03:17:33;5.70;;;1.80;;
6306;SDS011;3186;54.062;9.962;2022-07-22T03:20:03;3.57;;;1.50;;
6306;SDS011;3186;54.062;9.962;2022-07-22T03:22:30;4.77;;;1.63;;
6306;SDS011;3186;54.062;9.962;2022-07-22T03:24:57;3.63;;;1.63;;
6306;SDS011;3186;54.062;9.962;2022-07-22T03:27:24;5.37;;;2.00;;
6306;SDS011;3186;54.062;9.962;2022-07-22T03:29:50;4.67;;;1.63;;
6306;SDS011;3186;54.062;9.962;2022-07-22T03:32:15;3.40;;;1.67;;
6306;SDS011;3186;54.062;9.962;2022-07-22T03:34:45;3.33;;;1.43;;
6306;SDS011;3186;54.062;9.962;2022-07-22T03:37:11;3.30;;;1.80;;
6306;SDS011;3186;54.062;9.962;2022-07-22T03:39:39;3.10;;;1.50;;
6306;SDS011;3186;54.062;9.962;2022-07-22T03:42:05;6.50;;;1.83;;
6306;SDS011;3186;54.062;9.962;2022-07-22T03:44:38;5.17;;;1.57;;
6306;SDS011;3186;54.062;9.962;2022-07-22T03:47:04;5.73;;;1.87;;
6306;SDS011;3186;54.062;9.962;2022-07-22T03:49:30;5.00;;;1.67;;
6306;SDS011;3186;54.062;9.962;2022-07-22T03:51:58;5.50;;;1.80;;
6306;SDS011;3186;54.062;9.962;2022-07-22T03:54:24;2.83;;;1.70;;
6306;SDS011;3186;54.062;9.962;2022-07-22T03:56:50;4.13;;;1.77;;
6306;SDS011;3186;54.062;9.962;2022-07-22T03:59:16;8.40;;;2.20;;
6306;SDS011;3186;54.062;9.962;2022-07-22T04:01:42;6.97;;;1.93;;
6306;SDS011;3186;54.062;9.962;2022-07-22T04:04:10;4.70;;;1.80;;
6306;SDS011;3186;54.062;9.962;2022-07-22T04:06:42;5.63;;;2.17;;
6306;SDS011;3186;54.062;9.962;2022-07-22T04:09:26;5.33;;;2.00;;
6306;SDS011;3186;54.062;9.962;2022-07-22T04:11:52;4.27;;;2.00;;
6306;SDS011;3186;54.062;9.962;2022-07-22T04:14:18;4.27;;;1.97;;
6306;SDS011;3186;54.062;9.962;2022-07-22T04:16:45;4.80;;;2.37;;
6306;SDS011;3186;54.062;9.962;2022-07-22T04:19:12;4.50;;;2.20;;
6306;SDS011;3186;54.062;9.962;2022-07-22T04:22:05;8.03;;;2.57;;
6306;SDS011;3186;54.062;9.962;2022-07-22T04:24:31;6.93;;;2.37;;
6306;SDS011;3186;54.062;9.962;2022-07-22T04:26:57;5.50;;;2.47;;
6306;SDS011;3186;54.062;9.962;2022-07-22T04:29:23;6.80;;;2.73;;
6306;SDS011;3186;54.062;9.962;2022-07-22T04:31:49;14.13;;;3.10;;
6306;SDS011;3186;54.062;9.962;2022-07-22T04:34:18;7.27;;;2.67;;
6306;SDS011;3186;54.062;9.962;2022-07-22T04:36:46;6.93;;;2.80;;
6306;SDS011;3186;54.062;9.962;2022-07-22T04:39:11;8.10;;;3.30;;
6306;SDS011;3186;54.062;9.962;2022-07-22T04:41:44;5.93;;;2.80;;
6306;SDS011;3186;54.062;9.962;2022-07-22T04:44:13;6.20;;;2.73;;
6306;SDS011;3186;54.062;9.962;2022-07-22T04:46:39;6.67;;;2.33;;
6306;SDS011;3186;54.062;9.962;2022-07-22T04:49:05;6.27;;;2.83;;
6306;SDS011;3186;54.062;9.962;2022-07-22T04:51:30;7.10;;;3.00;;
6306;SDS011;3186;54.062;9.962;2022-07-22T04:54:02;7.57;;;3.17;;
6306;SDS011;3186;54.062;9.962;2022-07-22T04:56:32;8.13;;;2.90;;
6306;SDS011;3186;54.062;9.962;2022-07-22T04:58:58;6.77;;;2.67;;
6306;SDS011;3186;54.062;9.962;2022-07-22T05:01:28;7.67;;;2.80;;
6306;SDS011;3186;54.062;9.962;2022-07-22T05:03:55;7.23;;;2.97;;
6306;SDS011;3186;54.062;9.962;2022-07-22T05:06:21;9.03;;;3.70;;
6306;SDS011;3186;54.062;9.962;2022-07-22T05:08:47;8.43;;;3.07;;
6306;SDS011;3186;54.062;9.962;2022-07-22T05:11:13;5.23;;;2.93;;
6306;SDS011;3186;54.062;9.962;2022-07-22T05:13:39;6.03;;;2.90;;
6306;SDS011;3186;54.062;9.962;2022-07-22T05:16:06;12.97;;;3.77;;
6306;SDS011;3186;54.062;9.962;2022-07-22T05:18:35;8.83;;;3.20;;
6306;SDS011;3186;54.062;9.962;2022-07-22T05:21:01;8.97;;;3.17;;
6306;SDS011;3186;54.062;9.962;2022-07-22T05:23:28;5.83;;;2.97;;
6306;SDS011;3186;54.062;9.962;2022-07-22T05:25:55;7.50;;;2.97;;
6306;SDS011;3186;54.062;9.962;2022-07-22T05:28:21;9.20;;;2.67;;
6306;SDS011;3186;54.062;9.962;2022-07-22T05:30:48;8.47;;;3.07;;
6306;SDS011;3186;54.062;9.962;2022-07-22T05:33:14;8.80;;;3.00;;
6306;SDS011;3186;54.062;9.962;2022-07-22T05:35:55;9.73;;;3.17;;
6306;SDS011;3186;54.062;9.962;2022-07-22T05:38:23;9.73;;;3.03;;
6306;SDS011;3186;54.062;9.962;2022-07-22T05:40:49;10.00;;;2.97;;
6306;SDS011;3186;54.062;9.962;2022-07-22T05:43:15;12.37;;;3.20;;
6306;SDS011;3186;54.062;9.962;2022-07-22T05:45:40;11.67;;;3.20;;
6306;SDS011;3186;54.062;9.962;2022-07-22T05:48:07;10.13;;;3.30;;
6306;SDS011;3186;54.062;9.962;2022-07-22T05:50:33;8.87;;;3.17;;
6306;SDS011;3186;54.062;9.962;2022-07-22T05:53:00;7.07;;;2.70;;
6306;SDS011;3186;54.062;9.962;2022-07-22T05:55:26;6.47;;;2.90;;
6306;SDS011;3186;54.062;9.962;2022-07-22T05:57:52;11.47;;;3.10;;
6306;SDS011;3186;54.062;9.962;2022-07-22T06:00:18;11.50;;;3.20;;
6306;SDS011;3186;54.062;9.962;2022-07-22T06:02:44;10.23;;;2.87;;
6306;SDS011;3186;54.062;9.962;2022-07-22T06:05:16;14.53;;;4.10;;
6306;SDS011;3186;54.062;9.962;2022-07-22T06:07:42;11.33;;;3.20;;
6306;SDS011;3186;54.062;9.962;2022-07-22T06:10:10;7.33;;;2.60;;
6306;SDS011;3186;54.062;9.962;2022-07-22T06:12:37;9.60;;;2.80;;
6306;SDS011;3186;54.062;9.962;2022-07-22T06:15:03;6.57;;;2.67;;
6306;SDS011;3186;54.062;9.962;2022-07-22T06:17:30;8.17;;;2.73;;
6306;SDS011;3186;54.062;9.962;2022-07-22T06:19:58;10.13;;;3.77;;
6306;SDS011;3186;54.062;9.962;2022-07-22T06:22:26;11.43;;;3.30;;
6306;SDS011;3186;54.062;9.962;2022-07-22T06:24:52;10.37;;;2.87;;
6306;SDS011;3186;54.062;9.962;2022-07-22T06:27:18;10.07;;;2.93;;
6306;SDS011;3186;54.062;9.962;2022-07-22T06:29:47;9.23;;;2.70;;
6306;SDS011;3186;54.062;9.962;2022-07-22T06:32:13;10.27;;;3.00;;
6306;SDS011;3186;54.062;9.962;2022-07-22T06:34:39;11.87;;;3.37;;
6306;SDS011;3186;54.062;9.962;2022-07-22T06:37:06;11.73;;;3.57;;
6306;SDS011;3186;54.062;9.962;2022-07-22T06:39:32;8.93;;;2.67;;
6306;SDS011;3186;54.062;9.962;2022-07-22T06:42:16;11.43;;;3.43;;
6306;SDS011;3186;54.062;9.962;2022-07-22T06:45:11;13.10;;;3.27;;
6306;SDS011;3186;54.062;9.962;2022-07-22T06:47:44;11.23;;;2.90;;
6306;SDS011;3186;54.062;9.962;2022-07-22T06:50:12;13.63;;;2.90;;
6306;SDS011;3186;54.062;9.962;2022-07-22T06:52:38;11.13;;;3.07;;
6306;SDS011;3186;54.062;9.962;2022-07-22T06:55:05;11.53;;;3.60;;
6306;SDS011;3186;54.062;9.962;2022-07-22T06:57:36;7.53;;;2.53;;
6306;SDS011;3186;54.062;9.962;2022-07-22T07:00:03;11.57;;;3.00;;
6306;SDS011;3186;54.062;9.962;2022-07-22T07:02:33;11.20;;;3.20;;
6306;SDS011;3186;54.062;9.962;2022-07-22T07:04:59;9.10;;;3.20;;
6306;SDS011;3186;54.062;9.962;2022-07-22T07:07:26;10.63;;;2.93;;
6306;SDS011;3186;54.062;9.962;2022-07-22T07:09:57;8.83;;;2.83;;
6306;SDS011;3186;54.062;9.962;2022-07-22T07:12:46;6.63;;;2.53;;
6306;SDS011;3186;54.062;9.962;2022-07-22T07:15:19;12.10;;;2.77;;
6306;SDS011;3186;54.062;9.962;2022-07-22T07:17:45;8.47;;;2.97;;
6306;SDS011;3186;54.062;9.962;2022-07-22T07:20:14;10.83;;;3.10;;
6306;SDS011;3186;54.062;9.962;2022-07-22T07:22:40;6.30;;;2.30;;
6306;SDS011;3186;54.062;9.962;2022-07-22T07:25:07;6.83;;;2.57;;
6306;SDS011;3186;54.062;9.962;2022-07-22T07:27:34;7.83;;;2.40;;
6306;SDS011;3186;54.062;9.962;2022-07-22T07:30:04;10.20;;;3.10;;
6306;SDS011;3186;54.062;9.962;2022-07-22T07:32:31;8.90;;;3.10;;
6306;SDS011;3186;54.062;9.962;2022-07-22T07:34:57;8.47;;;2.83;;
6306;SDS011;3186;54.062;9.962;2022-07-22T07:37:23;9.77;;;2.93;;
6306;SDS011;3186;54.062;9.962;2022-07-22T07:39:49;6.07;;;2.37;;
6306;SDS011;3186;54.062;9.962;2022-07-22T07:42:15;9.57;;;2.80;;
6306;SDS011;3186;54.062;9.962;2022-07-22T07:44:41;10.43;;;3.10;;
6306;SDS011;3186;54.062;9.962;2022-07-22T07:47:07;10.97;;;2.53;;
6306;SDS011;3186;54.062;9.962;2022-07-22T07:49:33;6.83;;;2.20;;
6306;SDS011;3186;54.062;9.962;2022-07-22T07:51:59;8.67;;;2.10;;
6306;SDS011;3186;54.062;9.962;2022-07-22T07:54:25;7.60;;;2.60;;
6306;SDS011;3186;54.062;9.962;2022-07-22T07:56:53;11.00;;;2.70;;
6306;SDS011;3186;54.062;9.962;2022-07-22T07:59:19;11.33;;;2.70;;
6306;SDS011;3186;54.062;9.962;2022-07-22T08:01:45;10.17;;;2.37;;
6306;SDS011;3186;54.062;9.962;2022-07-22T08:04:11;10.70;;;2.73;;
6306;SDS011;3186;54.062;9.962;2022-07-22T08:06:37;8.10;;;2.40;;
6306;SDS011;3186;54.062;9.962;2022-07-22T08:09:05;9.53;;;2.70;;
6306;SDS011;3186;54.062;9.962;2022-07-22T08:11:34;8.00;;;2.70;;
6306;SDS011;3186;54.062;9.962;2022-07-22T08:14:16;11.33;;;2.80;;
6306;SDS011;3186;54.062;9.962;2022-07-22T08:17:02;8.40;;;2.73;;
6306;SDS011;3186;54.062;9.962;2022-07-22T08:19:29;8.37;;;2.40;;
6306;SDS011;3186;54.062;9.962;2022-07-22T08:21:55;13.37;;;2.90;;
6306;SDS011;3186;54.062;9.962;2022-07-22T08:24:27;10.13;;;2.73;;
6306;SDS011;3186;54.062;9.962;2022-07-22T08:26:54;9.27;;;2.30;;
6306;SDS011;3186;54.062;9.962;2022-07-22T08:29:20;7.10;;;2.40;;
6306;SDS011;3186;54.062;9.962;2022-07-22T08:31:46;8.53;;;2.43;;
6306;SDS011;3186;54.062;9.962;2022-07-22T08:34:14;6.13;;;2.20;;
6306;SDS011;3186;54.062;9.962;2022-07-22T08:36:40;13.30;;;2.53;;
6306;SDS011;3186;54.062;9.962;2022-07-22T08:39:06;11.53;;;2.40;;
6306;SDS011;3186;54.062;9.962;2022-07-22T08:41:37;7.70;;;2.33;;
6306;SDS011;3186;54.062;9.962;2022-07-22T08:44:06;7.33;;;2.23;;
6306;SDS011;3186;54.062;9.962;2022-07-22T08:46:33;12.10;;;2.40;;
6306;SDS011;3186;54.062;9.962;2022-07-22T08:49:17;7.07;;;2.20;;
6306;SDS011;3186;54.062;9.962;2022-07-22T08:51:52;6.73;;;2.40;;
6306;SDS011;3186;54.062;9.962;2022-07-22T08:54:22;10.53;;;2.67;;
6306;SDS011;3186;54.062;9.962;2022-07-22T08:56:48;6.90;;;2.37;;
6306;SDS011;3186;54.062;9.962;2022-07-22T08:59:15;8.80;;;2.50;;
6306;SDS011;3186;54.062;9.962;2022-07-22T09:07:31;6.37;;;2.20;;
6306;SDS011;3186;54.062;9.962;2022-07-22T09:10:18;8.13;;;2.60;;
6306;SDS011;3186;54.062;9.962;2022-07-22T09:13:20;7.00;;;2.40;;
6306;SDS011;3186;54.062;9.962;2022-07-22T09:16:03;6.40;;;2.40;;
6306;SDS011;3186;54.062;9.962;2022-07-22T09:19:06;7.67;;;2.10;;
6306;SDS011;3186;54.062;9.962;2022-07-22T09:21:50;7.07;;;2.07;;
6306;SDS011;3186;54.062;9.962;2022-07-22T09:24:39;6.03;;;2.20;;
6306;SDS011;3186;54.062;9.962;2022-07-22T09:27:22;7.30;;;2.10;;
6306;SDS011;3186;54.062;9.962;2022-07-22T09:30:19;8.27;;;2.47;;
6306;SDS011;3186;54.062;9.962;2022-07-22T09:32:54;6.30;;;2.13;;
6306;SDS011;3186;54.062;9.962;2022-07-22T09:35:37;6.40;;;2.50;;
6306;SDS011;3186;54.062;9.962;2022-07-22T09:38:07;6.20;;;2.20;;
6306;SDS011;3186;54.062;9.962;2022-07-22T09:40:47;5.27;;;2.00;;
6306;SDS011;3186;54.062;9.962;2022-07-22T09:43:18;6.37;;;2.27;;
6306;SDS011;3186;54.062;9.962;2022-07-22T09:45:55;8.80;;;2.27;;
6306;SDS011;3186;54.062;9.962;2022-07-22T09:48:39;6.33;;;2.30;;
6306;SDS011;3186;54.062;9.962;2022-07-22T09:51:29;8.83;;;2.53;;
6306;SDS011;3186;54.062;9.962;2022-07-22T09:54:21;6.53;;;2.17;;
6306;SDS011;3186;54.062;9.962;2022-07-22T09:56:49;9.70;;;2.70;;
6306;SDS011;3186;54.062;9.962;2022-07-22T09:59:17;5.53;;;2.27;;
6306;SDS011;3186;54.062;9.962;2022-07-22T10:02:00;6.97;;;2.20;;
6306;SDS011;3186;54.062;9.962;2022-07-22T10:04:30;6.70;;;2.20;;
6306;SDS011;3186;54.062;9.962;2022-07-22T10:07:00;5.97;;;2.00;;
6306;SDS011;3186;54.062;9.962;2022-07-22T10:09:32;10.17;;;2.50;;
6306;SDS011;3186;54.062;9.962;2022-07-22T10:12:01;8.33;;;2.20;;
6306;SDS011;3186;54.062;9.962;2022-07-22T10:14:27;7.93;;;1.83;;
6306;SDS011;3186;54.062;9.962;2022-07-22T10:16:57;6.40;;;2.20;;
6306;SDS011;3186;54.062;9.962;2022-07-22T10:19:24;6.07;;;2.30;;
6306;SDS011;3186;54.062;9.962;2022-07-22T10:21:50;6.60;;;2.10;;
6306;SDS011;3186;54.062;9.962;2022-07-22T10:24:16;4.63;;;2.03;;
6306;SDS011;3186;54.062;9.962;2022-07-22T10:26:57;5.93;;;2.30;;
6306;SDS011;3186;54.062;9.962;2022-07-22T10:29:45;6.00;;;1.97;;
6306;SDS011;3186;54.062;9.962;2022-07-22T10:35:19;5.27;;;2.20;;
6306;SDS011;3186;54.062;9.962;2022-07-22T10:45:47;8.17;;;2.13;;
6306;SDS011;3186;54.062;9.962;2022-07-22T10:48:18;6.40;;;2.40;;
6306;SDS011;3186;54.062;9.962;2022-07-22T10:50:50;6.27;;;1.90;;
6306;SDS011;3186;54.062;9.962;2022-07-22T10:54:02;7.57;;;1.97;;
6306;SDS011;3186;54.062;9.962;2022-07-22T10:58:42;6.57;;;2.20;;
6306;SDS011;3186;54.062;9.962;2022-07-22T11:01:17;6.77;;;2.20;;
6306;SDS011;3186;54.062;9.962;2022-07-22T11:03:45;5.87;;;1.70;;
6306;SDS011;3186;54.062;9.962;2022-07-22T11:08:52;5.00;;;2.17;;
6306;SDS011;3186;54.062;9.962;2022-07-22T11:14:00;4.33;;;2.10;;
6306;SDS011;3186;54.062;9.962;2022-07-22T11:16:27;10.40;;;2.60;;
6306;SDS011;3186;54.062;9.962;2022-07-22T11:18:54;7.87;;;1.90;;
6306;SDS011;3186;54.062;9.962;2022-07-22T11:21:23;6.93;;;1.47;;
6306;SDS011;3186;54.062;9.962;2022-07-22T11:23:54;4.47;;;1.20;;
6306;SDS011;3186;54.062;9.962;2022-07-22T11:26:42;4.57;;;1.90;;
6306;SDS011;3186;54.062;9.962;2022-07-22T11:29:10;6.80;;;1.83;;
6306;SDS011;3186;54.062;9.962;2022-07-22T11:31:40;5.60;;;1.53;;
6306;SDS011;3186;54.062;9.962;2022-07-22T11:34:11;5.73;;;1.90;;
6306;SDS011;3186;54.062;9.962;2022-07-22T11:36:39;4.37;;;1.87;;
6306;SDS011;3186;54.062;9.962;2022-07-22T11:39:06;6.93;;;2.07;;
6306;SDS011;3186;54.062;9.962;2022-07-22T11:41:33;5.87;;;1.50;;
6306;SDS011;3186;54.062;9.962;2022-07-22T11:44:00;4.90;;;1.60;;
6306;SDS011;3186;54.062;9.962;2022-07-22T11:46:27;2.60;;;1.23;;
6306;SDS011;3186;54.062;9.962;2022-07-22T11:48:59;4.13;;;1.50;;
6306;SDS011;3186;54.062;9.962;2022-07-22T11:51:29;3.57;;;1.23;;
6306;SDS011;3186;54.062;9.962;2022-07-22T11:53:56;3.87;;;1.43;;
6306;SDS011;3186;54.062;9.962;2022-07-22T11:56:22;6.27;;;1.50;;
6306;SDS011;3186;54.062;9.962;2022-07-22T11:58:49;4.97;;;1.50;;
6306;SDS011;3186;54.062;9.962;2022-07-22T12:01:19;5.73;;;1.53;;
6306;SDS011;3186;54.062;9.962;2022-07-22T12:04:08;4.17;;;1.80;;
6306;SDS011;3186;54.062;9.962;2022-07-22T12:06:36;6.20;;;1.73;;
6306;SDS011;3186;54.062;9.962;2022-07-22T12:09:14;6.13;;;1.80;;
6306;SDS011;3186;54.062;9.962;2022-07-22T12:11:47;4.57;;;1.83;;
6306;SDS011;3186;54.062;9.962;2022-07-22T12:14:19;4.40;;;1.73;;
6306;SDS011;3186;54.062;9.962;2022-07-22T12:19:31;4.67;;;1.47;;
6306;SDS011;3186;54.062;9.962;2022-07-22T12:22:00;5.50;;;1.90;;
6306;SDS011;3186;54.062;9.962;2022-07-22T12:27:04;6.70;;;1.70;;
6306;SDS011;3186;54.062;9.962;2022-07-22T12:32:05;2.83;;;1.40;;
6306;SDS011;3186;54.062;9.962;2022-07-22T12:34:34;6.20;;;1.90;;
6306;SDS011;3186;54.062;9.962;2022-07-22T12:40:10;4.83;;;1.90;;
6306;SDS011;3186;54.062;9.962;2022-07-22T12:42:43;6.70;;;1.70;;
6306;SDS011;3186;54.062;9.962;2022-07-22T12:45:16;5.73;;;1.70;;
6306;SDS011;3186;54.062;9.962;2022-07-22T12:50:25;5.20;;;1.53;;
6306;SDS011;3186;54.062;9.962;2022-07-22T12:55:32;5.07;;;1.73;;
6306;SDS011;3186;54.062;9.962;2022-07-22T12:57:59;4.97;;;1.40;;
6306;SDS011;3186;54.062;9.962;2022-07-22T13:00:26;2.57;;;1.20;;
6306;SDS011;3186;54.062;9.962;2022-07-22T13:02:54;4.57;;;1.67;;
6306;SDS011;3186;54.062;9.962;2022-07-22T13:05:22;3.33;;;1.13;;
6306;SDS011;3186;54.062;9.962;2022-07-22T13:07:48;4.80;;;1.53;;
6306;SDS011;3186;54.062;9.962;2022-07-22T13:10:15;5.43;;;1.47;;
6306;SDS011;3186;54.062;9.962;2022-07-22T13:12:42;4.50;;;1.50;;
6306;SDS011;3186;54.062;9.962;2022-07-22T13:15:08;5.47;;;1.63;;
6306;SDS011;3186;54.062;9.962;2022-07-22T13:17:34;5.70;;;1.60;;
6306;SDS011;3186;54.062;9.962;2022-07-22T13:20:01;3.07;;;1.20;;
6306;SDS011;3186;54.062;9.962;2022-07-22T13:22:28;7.40;;;1.87;;
6306;SDS011;3186;54.062;9.962;2022-07-22T13:24:54;8.77;;;1.80;;
6306;SDS011;3186;54.062;9.962;2022-07-22T13:27:20;4.67;;;1.70;;
6306;SDS011;3186;54.062;9.962;2022-07-22T13:29:46;3.53;;;1.20;;
6306;SDS011;3186;54.062;9.962;2022-07-22T13:32:12;5.23;;;1.40;;
6306;SDS011;3186;54.062;9.962;2022-07-22T13:34:38;3.93;;;1.43;;
6306;SDS011;3186;54.062;9.962;2022-07-22T13:37:04;6.43;;;1.70;;
6306;SDS011;3186;54.062;9.962;2022-07-22T13:39:30;6.43;;;1.63;;
6306;SDS011;3186;54.062;9.962;2022-07-22T13:41:56;4.30;;;1.47;;
6306;SDS011;3186;54.062;9.962;2022-07-22T13:44:21;5.53;;;1.30;;
6306;SDS011;3186;54.062;9.962;2022-07-22T13:46:47;4.73;;;1.33;;
6306;SDS011;3186;54.062;9.962;2022-07-22T13:49:14;4.60;;;1.20;;
6306;SDS011;3186;54.062;9.962;2022-07-22T13:51:40;7.43;;;1.83;;
6306;SDS011;3186;54.062;9.962;2022-07-22T13:54:06;6.63;;;1.40;;
6306;SDS011;3186;54.062;9.962;2022-07-22T13:56:32;3.97;;;1.50;;
6306;SDS011;3186;54.062;9.962;2022-07-22T13:58:59;5.33;;;1.67;;
6306;SDS011;3186;54.062;9.962;2022-07-22T14:01:25;3.60;;;1.30;;
6306;SDS011;3186;54.062;9.962;2022-07-22T14:03:52;3.87;;;1.43;;
6306;SDS011;3186;54.062;9.962;2022-07-22T14:06:18;4.60;;;1.40;;
6306;SDS011;3186;54.062;9.962;2022-07-22T14:08:43;5.13;;;1.40;;
6306;SDS011;3186;54.062;9.962;2022-07-22T14:11:09;4.57;;;1.20;;
6306;SDS011;3186;54.062;9.962;2022-07-22T14:13:35;6.73;;;1.57;;
6306;SDS011;3186;54.062;9.962;2022-07-22T14:16:01;4.80;;;1.67;;
6306;SDS011;3186;54.062;9.962;2022-07-22T14:18:45;2.17;;;1.33;;
6306;SDS011;3186;54.062;9.962;2022-07-22T14:21:11;5.97;;;1.90;;
6306;SDS011;3186;54.062;9.962;2022-07-22T14:23:37;4.17;;;1.40;;
6306;SDS011;3186;54.062;9.962;2022-07-22T14:26:03;7.67;;;2.10;;
6306;SDS011;3186;54.062;9.962;2022-07-22T14:28:29;8.20;;;1.50;;
6306;SDS011;3186;54.062;9.962;2022-07-22T14:30:55;4.90;;;1.50;;
6306;SDS011;3186;54.062;9.962;2022-07-22T14:33:21;7.57;;;1.70;;
6306;SDS011;3186;54.062;9.962;2022-07-22T14:35:47;6.23;;;1.77;;
6306;SDS011;3186;54.062;9.962;2022-07-22T14:38:13;4.27;;;1.50;;
6306;SDS011;3186;54.062;9.962;2022-07-22T14:40:38;5.43;;;1.77;;
6306;SDS011;3186;54.062;9.962;2022-07-22T14:43:04;5.10;;;1.23;;
6306;SDS011;3186;54.062;9.962;2022-07-22T14:45:30;3.90;;;1.43;;
6306;SDS011;3186;54.062;9.962;2022-07-22T14:47:56;3.07;;;1.30;;
6306;SDS011;3186;54.062;9.962;2022-07-22T14:50:22;4.30;;;1.37;;
6306;SDS011;3186;54.062;9.962;2022-07-22T14:52:48;3.90;;;1.23;;
6306;SDS011;3186;54.062;9.962;2022-07-22T14:55:13;4.20;;;1.40;;
6306;SDS011;3186;54.062;9.962;2022-07-22T14:57:39;7.70;;;1.63;;
6306;SDS011;3186;54.062;9.962;2022-07-22T15:00:05;5.50;;;1.47;;
6306;SDS011;3186;54.062;9.962;2022-07-22T15:02:32;4.13;;;1.40;;
6306;SDS011;3186;54.062;9.962;2022-07-22T15:04:58;6.03;;;1.53;;
6306;SDS011;3186;54.062;9.962;2022-07-22T15:07:24;4.60;;;1.70;;
6306;SDS011;3186;54.062;9.962;2022-07-22T15:09:50;3.73;;;1.37;;
6306;SDS011;3186;54.062;9.962;2022-07-22T15:12:16;4.73;;;1.47;;
6306;SDS011;3186;54.062;9.962;2022-07-22T15:14:41;3.80;;;1.60;;
6306;SDS011;3186;54.062;9.962;2022-07-22T15:17:07;4.37;;;1.20;;
6306;SDS011;3186;54.062;9.962;2022-07-22T15:19:33;3.80;;;1.50;;
6306;SDS011;3186;54.062;9.962;2022-07-22T15:21:59;7.20;;;1.80;;
6306;SDS011;3186;54.062;9.962;2022-07-22T15:24:25;4.37;;;1.17;;
6306;SDS011;3186;54.062;9.962;2022-07-22T15:26:51;4.23;;;1.50;;
6306;SDS011;3186;54.062;9.962;2022-07-22T15:29:17;4.47;;;1.50;;
6306;SDS011;3186;54.062;9.962;2022-07-22T15:31:43;4.30;;;1.53;;
6306;SDS011;3186;54.062;9.962;2022-07-22T15:34:09;2.70;;;1.30;;
6306;SDS011;3186;54.062;9.962;2022-07-22T15:36:34;3.73;;;1.50;;
6306;SDS011;3186;54.062;9.962;2022-07-22T15:39:00;3.07;;;1.50;;
6306;SDS011;3186;54.062;9.962;2022-07-22T15:41:26;7.30;;;1.40;;
6306;SDS011;3186;54.062;9.962;2022-07-22T15:43:53;4.23;;;1.20;;
6306;SDS011;3186;54.062;9.962;2022-07-22T15:46:19;2.57;;;1.30;;
6306;SDS011;3186;54.062;9.962;2022-07-22T15:48:45;4.83;;;1.50;;
6306;SDS011;3186;54.062;9.962;2022-07-22T15:51:11;5.13;;;1.40;;
6306;SDS011;3186;54.062;9.962;2022-07-22T15:53:37;5.13;;;1.40;;
6306;SDS011;3186;54.062;9.962;2022-07-22T15:56:03;3.43;;;1.27;;
6306;SDS011;3186;54.062;9.962;2022-07-22T15:58:29;2.73;;;1.20;;
6306;SDS011;3186;54.062;9.962;2022-07-22T16:01:13;3.70;;;1.33;;
6306;SDS011;3186;54.062;9.962;2022-07-22T16:03:39;3.93;;;1.47;;
6306;SDS011;3186;54.062;9.962;2022-07-22T16:06:05;4.27;;;1.13;;